createdAt,value
2018-08-24T00:00:24.031Z,20.69
2018-08-24T00:20:15.809Z,20.13
2018-08-24T00:40:06.332Z,20.32
2018-08-24T00:42:36.090Z,20.19
2018-08-24T00:45:06.498Z,20.19
2018-08-24T00:47:36.539Z,20.13
2018-08-24T00:50:06.495Z,20.20
2018-08-24T00:52:35.883Z,20.22
2018-08-24T00:55:05.916Z,20.16
2018-08-24T00:57:36.755Z,20.12
2018-08-24T01:00:07.507Z,20.16
2018-08-24T01:02:37.118Z,20.12
2018-08-24T01:05:07.156Z,20.11
2018-08-24T01:07:42.285Z,20.06
2018-08-24T01:10:17.004Z,20.14
2018-08-24T01:12:46.715Z,20.10
2018-08-24T01:15:16.243Z,20.15
2018-08-24T01:17:51.172Z,20.09
2018-08-24T01:37:42.506Z,20.05
2018-08-24T01:40:12.666Z,20.04
2018-08-24T01:42:43.140Z,19.93
2018-08-24T02:02:34.817Z,19.69
2018-08-24T02:05:04.607Z,19.72
2018-08-24T02:07:34.132Z,19.66
2018-08-24T02:10:04.459Z,19.66
2018-08-24T02:12:39.094Z,19.65
2018-08-24T02:15:09.566Z,19.60
2018-08-24T02:17:44.028Z,19.56
2018-08-24T02:20:18.915Z,19.68
2018-08-24T02:22:53.198Z,19.56
2018-08-24T02:42:42.929Z,19.25
2018-08-24T02:45:12.564Z,19.25
2018-08-24T02:47:42.079Z,19.26
2018-08-24T02:50:12.112Z,19.18
2018-08-24T02:52:42.012Z,19.27
2018-08-24T02:55:11.513Z,19.05
2018-08-24T02:57:41.347Z,18.91
2018-08-24T03:00:10.895Z,19.00
2018-08-24T03:02:40.829Z,18.93
2018-08-24T03:05:10.847Z,18.90
2018-08-24T03:07:40.298Z,18.85
2018-08-24T03:10:09.935Z,18.69
2018-08-24T03:12:39.612Z,18.75
2018-08-24T03:15:09.488Z,18.71
2018-08-24T03:17:44.763Z,18.72
2018-08-24T03:37:34.240Z,18.61
2018-08-24T03:57:26.366Z,18.53
2018-08-24T04:17:21.930Z,18.32
2018-08-24T04:19:51.696Z,18.48
2018-08-24T04:22:21.343Z,18.53
2018-08-24T04:24:50.963Z,18.57
2018-08-24T04:27:20.857Z,18.56
2018-08-24T04:47:12.152Z,18.71
2018-08-24T04:49:42.139Z,18.76
2018-08-24T04:52:11.644Z,18.69
2018-08-24T04:54:41.306Z,18.75
2018-08-24T04:57:11.189Z,18.74
2018-08-24T04:59:40.917Z,18.77
2018-08-24T05:19:33.051Z,18.95
2018-08-24T05:22:02.517Z,19.06
2018-08-24T05:24:32.015Z,18.98
2018-08-24T05:27:01.974Z,19.04
2018-08-24T05:29:32.006Z,19.13
2018-08-24T05:32:01.788Z,19.25
2018-08-24T05:34:31.845Z,19.31
2018-08-24T05:37:01.631Z,19.32
2018-08-24T05:56:51.132Z,19.96
2018-08-24T05:59:20.636Z,20.09
2018-08-24T06:01:50.145Z,20.22
2018-08-24T06:04:19.446Z,20.24
2018-08-24T06:06:49.335Z,20.26
2018-08-24T06:26:42.329Z,20.76
2018-08-24T06:46:34.870Z,21.27
2018-08-24T06:49:04.877Z,21.26
2018-08-24T06:51:34.690Z,21.24
2018-08-24T06:54:04.173Z,21.43
2018-08-24T06:56:34.045Z,21.35
2018-08-24T06:59:03.770Z,21.46
2018-08-24T07:01:33.459Z,21.46
2018-08-24T07:04:03.396Z,21.50
2018-08-24T07:06:32.889Z,21.65
2018-08-24T07:09:02.552Z,21.51
2018-08-24T07:11:32.035Z,21.61
2018-08-24T07:31:24.622Z,22.33
2018-08-24T07:33:54.380Z,22.51
2018-08-24T07:36:24.761Z,22.59
2018-08-24T07:38:54.241Z,22.82
2018-08-24T07:41:24.360Z,22.68
2018-08-24T08:01:16.411Z,23.20
2018-08-24T08:03:46.033Z,23.17
2018-08-24T08:06:21.887Z,23.23
2018-08-24T08:08:51.784Z,23.11
2018-08-24T08:11:21.620Z,23.22
2018-08-24T08:13:51.283Z,23.26
2018-08-24T08:16:21.335Z,23.42
2018-08-24T08:18:50.697Z,23.41
2018-08-24T08:21:20.244Z,23.43
2018-08-24T08:23:50.476Z,23.53
2018-08-24T08:26:19.959Z,23.69
2018-08-24T08:28:49.398Z,23.82
2018-08-24T08:31:19.522Z,23.95
2018-08-24T08:33:49.491Z,23.98
2018-08-24T08:53:41.958Z,24.59
2018-08-24T09:13:33.927Z,25.32
2018-08-24T09:16:03.831Z,25.29
2018-08-24T09:18:38.845Z,25.29
2018-08-24T09:21:13.520Z,25.21
2018-08-24T09:41:04.652Z,25.64
2018-08-24T09:43:39.594Z,26.07
2018-08-24T09:46:09.927Z,26.06
2018-08-24T09:48:44.807Z,26.22
2018-08-24T10:08:42.409Z,26.32
2018-08-24T10:11:11.789Z,26.37
2018-08-24T10:13:41.509Z,26.42
2018-08-24T10:16:11.454Z,26.58
2018-08-24T10:36:02.345Z,26.37
2018-08-24T10:38:32.166Z,26.51
2018-08-24T10:41:01.965Z,26.64
2018-08-24T10:43:31.774Z,26.70
2018-08-24T10:46:01.911Z,26.39
2018-08-24T10:48:31.383Z,26.22
2018-08-24T10:51:00.917Z,26.18
2018-08-24T10:53:30.717Z,26.22
2018-08-24T10:56:00.531Z,26.28
2018-08-24T10:58:30.026Z,26.25
2018-08-24T11:18:19.261Z,27.91
2018-08-24T11:20:49.042Z,28.29
2018-08-24T11:40:39.998Z,29.50
2018-08-24T11:43:09.587Z,29.65
2018-08-24T11:45:39.201Z,29.60
2018-08-24T11:48:09.038Z,29.75
2018-08-24T11:50:38.618Z,29.83
2018-08-24T11:53:08.130Z,29.20
2018-08-24T11:55:38.484Z,29.48
2018-08-24T11:58:08.436Z,29.51
2018-08-24T12:00:37.869Z,29.37
2018-08-24T12:20:30.574Z,29.99
2018-08-24T12:22:59.904Z,30.25
2018-08-24T12:25:29.278Z,30.22
2018-08-24T12:45:19.686Z,31.43
2018-08-24T12:47:49.246Z,31.58
2018-08-24T12:50:18.877Z,31.10
2018-08-24T12:52:49.228Z,30.63
2018-08-24T12:55:18.683Z,30.40
2018-08-24T12:57:48.371Z,30.83
2018-08-24T13:00:18.284Z,31.33
2018-08-24T13:02:47.834Z,31.36
2018-08-24T13:05:17.440Z,31.07
2018-08-24T13:25:09.726Z,32.05
2018-08-24T13:27:39.474Z,32.29
2018-08-24T13:30:09.110Z,32.37
2018-08-24T13:32:38.846Z,32.43
2018-08-24T13:35:08.458Z,31.67
2018-08-24T13:37:37.856Z,31.26
2018-08-24T13:40:08.067Z,31.20
2018-08-24T13:42:37.590Z,30.84
2018-08-24T13:45:07.125Z,31.02
2018-08-24T13:47:37.532Z,30.96
2018-08-24T14:07:29.619Z,29.86
2018-08-24T14:09:59.565Z,29.88
2018-08-24T14:12:29.105Z,30.15
2018-08-24T14:14:58.713Z,29.96
2018-08-24T14:17:28.164Z,29.58
2018-08-24T14:19:57.711Z,28.94
2018-08-24T14:22:27.660Z,29.43
2018-08-24T14:24:57.077Z,29.92
2018-08-24T14:27:26.574Z,30.39
2018-08-24T14:47:19.345Z,31.02
2018-08-24T14:49:48.814Z,30.90
2018-08-24T14:52:18.738Z,30.81
2018-08-24T14:54:49.072Z,30.83
2018-08-24T14:57:18.809Z,30.97
2018-08-24T14:59:48.373Z,31.29
2018-08-24T15:02:18.533Z,31.43
2018-08-24T15:04:48.425Z,31.05
2018-08-24T15:24:38.832Z,30.89
2018-08-24T15:44:29.873Z,30.83
2018-08-24T15:46:59.435Z,30.75
2018-08-24T15:49:29.117Z,30.56
2018-08-24T16:09:20.864Z,30.05
2018-08-24T16:11:50.500Z,29.91
2018-08-24T16:14:20.171Z,29.76
2018-08-24T16:16:50.193Z,29.63
2018-08-24T16:19:20.003Z,29.64
2018-08-24T16:39:10.732Z,28.22
2018-08-24T16:41:40.613Z,28.11
2018-08-24T16:44:10.546Z,28.19
2018-08-24T16:46:40.037Z,27.84
2018-08-24T16:49:09.757Z,27.64
2018-08-24T16:51:39.392Z,27.66
2018-08-24T17:11:30.485Z,26.84
2018-08-24T17:31:21.495Z,26.26
2018-08-24T17:51:12.049Z,25.68
2018-08-24T17:53:41.650Z,25.84
2018-08-24T17:56:11.257Z,25.80
2018-08-24T17:58:41.709Z,25.94
2018-08-24T18:18:33.125Z,25.26
2018-08-24T18:38:24.962Z,24.86
2018-08-24T18:40:55.015Z,24.50
2018-08-24T18:43:24.583Z,24.60
2018-08-24T18:45:54.730Z,24.60
2018-08-24T18:48:24.371Z,24.63
2018-08-24T19:19:53.678Z,23.74
2018-08-24T19:22:23.282Z,23.73
2018-08-24T19:42:20.450Z,23.43
2018-08-24T19:44:50.050Z,23.34
2018-08-24T19:47:25.282Z,23.39
2018-08-24T19:49:54.628Z,23.38
2018-08-24T19:52:24.306Z,23.35
2018-08-24T19:54:54.363Z,23.31
2018-08-24T20:14:49.016Z,22.84
2018-08-24T20:17:24.392Z,22.82
2018-08-24T20:19:54.312Z,22.76
2018-08-24T20:22:23.898Z,22.75
2018-08-24T20:24:53.638Z,22.74
2018-08-24T20:27:23.221Z,22.73
2018-08-24T20:29:53.016Z,22.59
2018-08-24T20:32:22.782Z,22.67
2018-08-24T20:34:52.782Z,22.64
2018-08-24T20:43:10.522Z,22.42
2018-08-24T20:45:40.155Z,22.41
2018-08-24T20:48:09.723Z,22.36
2018-08-24T20:50:39.933Z,22.25
2018-08-24T20:53:09.531Z,22.22
2018-08-24T20:55:39.214Z,22.11
2018-08-24T20:58:08.933Z,22.15
2018-08-24T21:00:38.462Z,22.12
2018-08-24T21:03:07.936Z,22.08
2018-08-24T21:05:37.685Z,22.01
2018-08-24T21:08:07.747Z,21.87
2018-08-24T21:10:37.219Z,21.79
2018-08-24T21:13:07.408Z,21.68
2018-08-24T21:15:37.278Z,21.69
2018-08-24T21:18:06.882Z,21.71
2018-08-24T21:20:36.824Z,21.63
2018-08-24T21:23:06.710Z,21.54
2018-08-24T21:25:36.433Z,21.54
2018-08-24T21:28:06.607Z,21.66
2018-08-24T21:30:36.174Z,21.52
2018-08-24T21:33:05.883Z,21.45
2018-08-24T21:35:36.248Z,21.40
2018-08-24T21:38:06.158Z,21.48
2018-08-24T21:40:35.842Z,21.32
2018-08-24T21:43:05.803Z,21.39
2018-08-24T21:45:35.466Z,21.26
2018-08-24T21:48:05.188Z,21.20
2018-08-24T21:50:35.144Z,21.22
2018-08-24T21:53:04.771Z,21.26
2018-08-24T21:55:34.297Z,21.17
2018-08-24T21:58:04.250Z,21.10
2018-08-24T22:00:38.002Z,21.12
2018-08-24T22:03:08.476Z,21.06
2018-08-24T22:05:38.078Z,20.93
2018-08-24T22:08:08.402Z,20.88
2018-08-24T22:10:38.163Z,20.78
2018-08-24T22:13:07.821Z,20.80
2018-08-24T22:15:37.301Z,20.79
2018-08-24T22:18:07.397Z,20.61
2018-08-24T22:20:37.246Z,20.67
2018-08-24T22:23:07.221Z,20.63
2018-08-24T22:25:37.288Z,20.65
2018-08-24T22:28:07.220Z,20.57
2018-08-24T22:30:36.711Z,20.57
2018-08-24T22:33:06.814Z,20.44
2018-08-24T22:35:36.554Z,20.50
2018-08-24T22:38:06.161Z,20.57
2018-08-24T22:40:36.389Z,20.52
2018-08-24T22:43:10.029Z,20.47
2018-08-24T22:45:40.527Z,20.50
2018-08-24T22:48:10.324Z,20.42
2018-08-24T22:50:40.047Z,20.33
2018-08-24T22:53:09.589Z,20.37
2018-08-24T22:55:39.837Z,20.37
2018-08-24T22:58:09.626Z,20.22
2018-08-24T23:00:39.497Z,20.25
2018-08-24T23:03:09.034Z,20.21
2018-08-24T23:05:38.777Z,20.08
2018-08-24T23:08:08.862Z,20.15
2018-08-24T23:10:38.387Z,20.18
2018-08-24T23:13:07.928Z,20.18
2018-08-24T23:15:37.788Z,20.10
2018-08-24T23:18:07.410Z,20.14
2018-08-24T23:20:36.970Z,20.10
2018-08-24T23:23:07.031Z,20.03
2018-08-24T23:25:36.699Z,19.94
2018-08-24T23:28:06.252Z,19.80
2018-08-24T23:30:36.385Z,19.73
2018-08-24T23:33:06.253Z,19.87
2018-08-24T23:35:35.970Z,19.81
2018-08-24T23:38:06.097Z,19.85
2018-08-24T23:40:35.581Z,19.82
2018-08-24T23:43:05.374Z,19.76
2018-08-24T23:45:34.914Z,19.74
2018-08-24T23:48:04.618Z,19.78
2018-08-24T23:50:34.604Z,19.71
2018-08-24T23:53:04.558Z,19.71
2018-08-24T23:55:34.034Z,19.78
2018-08-24T23:58:04.329Z,19.70
